Flight Track Log - Related Links

Times and Time Zones

All times are in EDT time to prevent confusion due to time zone crossing. See the DAL3721 flight status page for this flight to view local times or setup timezone preferences in your user account.

Time Position Orientation Groundspeed Altitude Reporting Facility
EDT Latitude Longitude Course Direction KTS MPH feet Rate Location/Type
08:36PM 39.0500 -84.6833 297° West 160 184 1,500  Level Cincinnati TRACON
08:37PM 39.0500 -84.7667 270° West 228 262 2,500 1,457 Climbing Cincinnati TRACON
08:38PM 39.0464 -84.8789 268° West 276 318 4,900 2,444 Climbing Indianapolis Center
08:39PM 38.9450 -84.8379 312° West  Level FlightAware Approximate
08:39PM 39.0539 -84.9783 276° West 280 322 8,000  Level Indianapolis Center
08:40PM 39.0174 -84.9427 311° West  Level FlightAware Approximate
08:40PM 39.0886 -85.0750 295° West 296 341 10,500  Level Indianapolis Center
08:41PM 39.0819 -85.0548 297° West  Level FlightAware Approximate
08:42PM 39.1286 -85.1794 296° West 324 373 11,600  Level Indianapolis Center
08:43PM 39.1731 -85.2944 297° West 355 409 13,500 1,854 Climbing Indianapolis Center
08:44PM 39.2325 -85.4333 299° West 368 423 15,400 1,561 Climbing Indianapolis Center
08:45PM 39.2764 -85.5581 294° West 383 441 16,700 1,525 Climbing Indianapolis Center
08:46PM 39.2953 -85.6931 280° West 385 443 18,500 1,268 Climbing Indianapolis Center
08:47PM 39.3172 -85.8289 282° West 387 445 19,300 976 Climbing Indianapolis Center
08:48PM 39.3381 -85.9694 281° West 396 456 20,500 1,082 Climbing Indianapolis Center
08:49PM 39.3594 -86.1089 281° West 396 456 21,500 927 Climbing Indianapolis Center
08:50PM 39.3814 -86.2519 281° West 403 464 22,400 683 Climbing Indianapolis Center
08:51PM 39.4022 -86.3972 281° West 407 468 22,900 443 Climbing Indianapolis Center
08:52PM 39.4244 -86.5464 281° West 417 480 23,300 439 Climbing Indianapolis Center
08:53PM 39.4469 -86.6989 281° West 427 491 23,800 585 Climbing Indianapolis Center
08:54PM 39.4733 -86.8822 281° West 432 497 24,500 541 Climbing Indianapolis Center
08:55PM 39.4956 -87.0358 281° West 434 499 24,900 439 Climbing Indianapolis Center
08:56PM 39.5178 -87.1894 281° West 435 501 25,400 537 Climbing Indianapolis Center
08:57PM 39.5394 -87.3425 280° West 434 499 26,000 492 Climbing Indianapolis Center
08:58PM 39.5597 -87.4969 280° West 435 501 26,400 443 Climbing Indianapolis Center
08:59PM 39.5803 -87.6492 280° West 431 496 26,900 488 Climbing Indianapolis Center
09:00PM 39.6025 -87.8036 281° West 435 501 27,400 537 Climbing Indianapolis Center
09:01PM 39.6222 -87.9561 280° West 432 497 28,000 541 Climbing Indianapolis Center
09:02PM 39.6428 -88.1075 280° West 430 495 28,500 492 Climbing Indianapolis Center
09:03PM 39.6631 -88.2581 280° West 426 490 29,000 541 Climbing Indianapolis Center
09:04PM 39.6872 -88.4411 280° West 430 495 29,600 541 Climbing Indianapolis Center
09:05PM 39.7067 -88.5933 279° West 430 495 30,100 488 Climbing Indianapolis Center
09:06PM 39.7275 -88.7447 280° West 428 493 30,600 488 Climbing Indianapolis Center
09:07PM 39.7458 -88.8964 279° West 427 491 31,100 492 Climbing Indianapolis Center
09:08PM 39.7631 -89.0481 278° West 427 491 31,600 443 Climbing Indianapolis Center
09:09PM 39.7608 -89.2017 269° West 425 489 32,000 197 Climbing Indianapolis Center
09:10PM 39.7589 -89.3578 269° West 432 497 32,000  Level Indianapolis Center
09:11PM 39.7569 -89.4233 268° West 433 498 32,000  Level Kansas City Center
09:12PM 39.7544 -89.6183 269° West 441 507 32,000  Level Kansas City Center
09:13PM 39.7528 -89.7819 269° West 448 516 32,000  Level Kansas City Center
09:14PM 39.7511 -89.9492 269° West 456 525 32,000  Level Kansas City Center
09:15PM 39.7492 -90.1167 269° West 460 529 32,000  Level Kansas City Center
09:16PM 39.7467 -90.2850 269° West 462 532 32,000  Level Kansas City Center
09:17PM 39.7439 -90.4519 269° West 463 533 32,000  Level Kansas City Center
09:18PM 39.7417 -90.6078 269° West 462 532 32,000  Level Kansas City Center
09:19PM 39.7375 -90.8058 268° West 461 531 32,000  Level Kansas City Center
09:20PM 39.7333 -90.9700 268° West 458 527 32,000  Level Kansas City Center
09:21PM 39.7297 -91.1333 268° West 457 526 32,000  Level Kansas City Center
09:22PM 39.7267 -91.2961 269° West 455 524 32,000  Level Kansas City Center
09:23PM 39.7208 -91.4594 267° West 458 527 32,000  Level Kansas City Center
09:24PM 39.7172 -91.6247 268° West 460 529 32,000  Level Kansas City Center
09:25PM 39.7111 -91.7886 267° West 458 527 32,000  Level Kansas City Center
09:26PM 39.7056 -91.9861 268° West 458 527 32,000  Level Kansas City Center
09:27PM 39.7000 -92.1497 268° West 457 526 32,000 -393 Level Kansas City Center
09:28PM 39.6950 -92.3136 268° West 456 525 31,200 -1,171 Descending Kansas City Center
09:29PM 39.6883 -92.4844 267° West 462 532 29,600 -1,561 Descending Kansas City Center
09:30PM 39.6825 -92.6564 268° West 470 541 28,000 -1,623 Descending Kansas City Center
09:31PM 39.6758 -92.8261 267° West 472 543 26,300 -1,659 Descending Kansas City Center
09:32PM 39.6694 -92.9953 267° West 472 543 24,600 -1,659 Descending Kansas City Center
09:33PM 39.6622 -93.1636 267° West 469 540 22,900 -1,869 Descending Kansas City Center
09:34PM 39.6531 -93.3642 267° West 467 537 20,800 -1,805 Descending Kansas City Center
09:35PM 39.6475 -93.5111 267° West 434 499 19,200 -1,463 Descending Kansas City Center
09:36PM 39.6406 -93.6494 266° West 391 450 17,800 -1,328 Descending Kansas City Center
09:37PM 39.6353 -93.7892 267° West 388 447 16,500 -1,268 Descending Kansas City Center
09:38PM 39.6103 -93.9142 255° West 384 442 15,200 -1,415 Descending Kansas City Center
09:39PM 39.5461 -94.0422 237° Southwest 381 438 13,600 -1,426 Descending Kansas City Center
09:40PM 39.4919 -94.1492 237° Southwest 371 427 12,300 -1,122 Descending Kansas City Center
09:41PM 39.4314 -94.2708 237° Southwest 360 414 11,300 -976 Descending Kansas City Center
09:42PM 39.3836 -94.3644 237° Southwest 323 372 10,300 -1,230 Descending Kansas City Center
09:43PM 39.3417 -94.4461 236° Southwest 291 335 8,800 -1,569 Descending Kansas City Center
09:45PM 39.2667 -94.5833 235° Southwest 290 334 6,300 -1,512 Descending Kansas City TRACON
09:45PM 39.2414 -94.6139 223° Southwest 287 330 5,700 -1,304 Descending Kansas City Center
09:46PM 39.1694 -94.6411 196° South 280 322 4,300 -836 Descending Kansas City Center
09:47PM 39.1106 -94.7044 220° Southwest 275 316 4,000 -295 Descending Kansas City Center

Login

Don't have an account? Register now (free) for customized features, flight alerts, and more!